Kezdőlap
METAR-TAF:

METAR-TAF

Repülőterek :

Stockholm-Arlanda, Svédország

Stockholm-Arlanda repülőtér

földrajzi szélesség: 59-39N, földrajzi hosszúság: 017-57E, magasság: 38 m

Jelenlegi meteorológiai megfigyelések

A jelentés 27 perccel ezelõtt készült, 08:20 UTC
Nyugat-délnyugati szél 14 kt
Hőmérséklet 15°C
Páratartalom 72%
Légköri nyomás 1018 hPa
Látótávolság 10 km, vagy több
felhőtlen 1500 m magasságban, és nincs gomolyfelhõ

METAR: ESSA 200820Z 24014KT CAVOK 15/10 Q1018 NOSIG

Idő: 10:47 (08:47 UTC)

Előrejelzés

A jelentés 3 órával és 17 perccel ezelõtt készült, 05:30 UTC
Az előrejelzés 20-én 06 óra UTC és 21-én 06 óra UTC között érvényes
Nyugat-délnyugati szél 10 kt
Látótávolság 10 km, vagy több
felhőtlen 1500 m magasságban, és nincs gomolyfelhõ
20-én 23 óra UTC és 21-én 01 óra UTC között fokozatosan kialakuló
Északnyugati szél 8 kt

TAF: ESSA 200530Z 2006/2106 25010KT CAVOK BECMG 2023/2101 31008KT

Meteorológiai megfigyelések és előrejelzések több, mint 4000 repülőtéren (METAR és TAF jelentéseket).

A térképen piros és sárga pontok jelzik az elérhető meteorológiai állomásokat.

Mozgassa az egeret a pont fölött, hogy megjelenjen az állomás neve.

Azután kattintson az időjárási megfigyelések és előrejelzések megtekintéséhez.

A térkép megváltoztatása: kattintson a fekete keresztel jelölt zöld gombra ráközelítéshez, a vonallal jelölt zöld gombra távolításhoz, vagy a zöld nyilakra a szomszédos térképek eléréséhez.


METAR-TAF: